TimeCST,TemperatureF,Dew PointF,Humidity,Sea Level PressureIn,VisibilityMPH,Wind Direction,Wind SpeedMPH,Gust SpeedMPH,PrecipitationIn,Events,Conditions,WindDirDegrees,DateUTC
12:53 AM,33.1,24.1,70,29.99,10.0,South,5.8,-,N/A,,Clear,170,2013-01-08 06:53:00
1:53 AM,34.0,25.0,70,29.99,10.0,South,8.1,-,N/A,,Clear,170,2013-01-08 07:53:00
2:53 AM,34.0,25.0,70,29.99,10.0,South,6.9,-,N/A,,Clear,180,2013-01-08 08:53:00
3:53 AM,32.0,25.0,75,29.98,10.0,SSE,9.2,-,N/A,,Clear,160,2013-01-08 09:53:00
4:53 AM,33.1,25.0,72,29.96,10.0,South,8.1,-,N/A,,Clear,180,2013-01-08 10:53:00
5:53 AM,33.8,26.6,75,29.93,10.0,South,13.8,20.7,N/A,,Clear,190,2013-01-08 11:53:00
6:53 AM,34.0,27.0,75,29.95,10.0,South,13.8,-,N/A,,Clear,190,2013-01-08 12:53:00
7:53 AM,34.0,27.0,75,29.96,10.0,South,10.4,-,N/A,,Clear,180,2013-01-08 13:53:00
8:53 AM,34.0,28.0,79,29.98,10.0,South,8.1,-,N/A,,Clear,180,2013-01-08 14:53:00
9:53 AM,39.0,30.9,73,29.99,10.0,South,9.2,-,N/A,,Clear,190,2013-01-08 15:53:00
10:53 AM,43.0,30.9,62,29.97,10.0,South,16.1,24.2,N/A,,Clear,190,2013-01-08 16:53:00
11:53 AM,46.9,32.0,56,29.95,10.0,South,15.0,20.7,N/A,,Clear,190,2013-01-08 17:53:00
12:53 PM,50.0,32.0,50,29.91,10.0,South,20.7,28.8,N/A,,Clear,190,2013-01-08 18:53:00
1:53 PM,54.0,32.0,43,29.88,10.0,SSW,18.4,25.3,N/A,,Clear,210,2013-01-08 19:53:00
2:53 PM,54.0,32.0,43,29.91,10.0,SW,20.7,26.5,N/A,,Clear,230,2013-01-08 20:53:00
3:53 PM,48.9,33.1,54,29.95,10.0,West,10.4,-,N/A,,Clear,280,2013-01-08 21:53:00
4:53 PM,46.0,32.0,58,29.97,10.0,West,8.1,-,N/A,,Clear,270,2013-01-08 22:53:00
5:53 PM,41.0,30.0,65,30.01,10.0,West,9.2,-,N/A,,Clear,260,2013-01-08 23:53:00
6:53 PM,39.0,30.0,70,30.04,10.0,West,10.4,-,N/A,,Clear,260,2013-01-09 00:53:00
7:53 PM,36.0,28.9,76,30.08,10.0,NW,5.8,-,N/A,,Clear,310,2013-01-09 01:53:00
8:53 PM,36.0,28.0,73,30.10,10.0,West,6.9,-,N/A,,Clear,280,2013-01-09 02:53:00
9:53 PM,33.1,27.0,78,30.14,10.0,West,9.2,-,N/A,,Clear,280,2013-01-09 03:53:00
10:53 PM,30.2,26.6,86,30.14,10.0,WNW,6.9,-,N/A,,Clear,290,2013-01-09 04:53:00
11:53 PM,30.0,25.0,82,30.19,10.0,West,4.6,-,N/A,,Clear,280,2013-01-09 05:53:00